Time,TemperatureF,DewpointF,PressureIn,WindDirection,WindDirectionDegrees,WindSpeedMPH,WindSpeedGustMPH,Humidity,HourlyPrecipIn,Conditions,Clouds,dailyrainin,SolarRadiationWatts/m^2,SoftwareType,DateUTC
2013-05-25 00:02:00,55.0,42.0,-100.00,SW,230,1.0,5.0,61,0.00,,,0.00,0.000000,,2013-05-25 04:02:00,
2013-05-25 00:23:00,55.0,42.0,-100.00,SW,230,1.0,5.0,61,0.00,,,0.00,0.000000,,2013-05-25 04:23:00,
2013-05-25 00:33:00,55.0,42.0,-100.00,SW,230,1.0,5.0,61,0.00,,,0.00,0.000000,,2013-05-25 04:33:00,
2013-05-25 00:43:00,55.0,42.0,-100.00,SW,230,1.0,5.0,61,0.00,,,0.00,0.000000,,2013-05-25 04:43:00,
2013-05-25 00:53:00,55.0,42.0,-100.00,SW,230,1.0,5.0,61,0.00,,,0.00,0.000000,,2013-05-25 04:53:00,
2013-05-25 01:02:00,51.0,43.0,-100.00,SSE,163,2.0,4.0,74,0.00,,,0.00,0.000000,,2013-05-25 05:02:00,
2013-05-25 01:22:00,51.0,43.0,-100.00,SSE,163,2.0,4.0,74,0.00,,,0.00,0.000000,,2013-05-25 05:22:00,
2013-05-25 01:32:00,51.0,43.0,-100.00,SSE,163,2.0,4.0,74,0.00,,,0.00,0.000000,,2013-05-25 05:32:00,
2013-05-25 01:43:00,51.0,43.0,-100.00,SSE,163,2.0,4.0,74,0.00,,,0.00,0.000000,,2013-05-25 05:43:00,
2013-05-25 01:52:00,51.0,43.0,-100.00,SSE,163,2.0,4.0,74,0.00,,,0.00,0.000000,,2013-05-25 05:52:00,
2013-05-25 02:22:00,52.0,42.0,-100.00,North,1,2.0,4.0,69,0.00,,,0.00,0.000000,,2013-05-25 06:22:00,
2013-05-25 02:32:00,52.0,42.0,-100.00,North,1,2.0,4.0,69,0.00,,,0.00,0.000000,,2013-05-25 06:32:00,
2013-05-25 02:42:00,52.0,42.0,-100.00,North,1,2.0,4.0,69,0.00,,,0.00,0.000000,,2013-05-25 06:42:00,
2013-05-25 02:52:00,52.0,42.0,-100.00,North,1,2.0,4.0,69,0.00,,,0.00,0.000000,,2013-05-25 06:52:00,
2013-05-25 03:01:00,52.0,42.0,-100.00,North,1,2.0,4.0,69,0.00,,,0.00,0.000000,,2013-05-25 07:01:00,
2013-05-25 03:02:00,51.0,46.0,-100.00,NNW,348,2.0,3.0,83,0.00,,,0.00,0.000000,,2013-05-25 07:02:00,
2013-05-25 03:22:00,51.0,46.0,-100.00,NNW,348,2.0,3.0,83,0.00,,,0.00,0.000000,,2013-05-25 07:22:00,
2013-05-25 03:32:00,51.0,46.0,-100.00,NNW,348,2.0,3.0,83,0.00,,,0.00,0.000000,,2013-05-25 07:32:00,
2013-05-25 03:42:00,51.0,46.0,-100.00,NNW,348,2.0,3.0,83,0.00,,,0.00,0.000000,,2013-05-25 07:42:00,
2013-05-25 03:52:00,51.0,46.0,-100.00,NNW,348,2.0,3.0,83,0.00,,,0.00,0.000000,,2013-05-25 07:52:00,
2013-05-25 04:02:00,48.0,41.0,-100.00,SSE,149,1.0,3.0,78,0.00,,,0.00,0.000000,,2013-05-25 08:02:00,
2013-05-25 04:23:00,48.0,41.0,-100.00,SSE,149,1.0,3.0,78,0.00,,,0.00,0.000000,,2013-05-25 08:23:00,
2013-05-25 04:32:00,48.0,41.0,-100.00,SSE,149,1.0,3.0,78,0.00,,,0.00,0.000000,,2013-05-25 08:32:00,
2013-05-25 04:42:00,48.0,41.0,-100.00,SSE,149,1.0,3.0,78,0.00,,,0.00,0.000000,,2013-05-25 08:42:00,
2013-05-25 04:52:00,48.0,41.0,-100.00,SSE,149,1.0,3.0,78,0.00,,,0.00,0.000000,,2013-05-25 08:52:00,
2013-05-25 05:02:00,47.0,40.0,-100.00,ENE,68,1.0,3.0,76,0.00,,,0.00,0.000000,,2013-05-25 09:02:00,
2013-05-25 05:22:00,47.0,40.0,-100.00,ENE,68,1.0,3.0,76,0.00,,,0.00,0.000000,,2013-05-25 09:22:00,
2013-05-25 05:33:00,47.0,40.0,-100.00,ENE,68,1.0,3.0,76,0.00,,,0.00,0.000000,,2013-05-25 09:33:00,
2013-05-25 05:43:00,47.0,40.0,-100.00,ENE,68,1.0,3.0,76,0.00,,,0.00,0.000000,,2013-05-25 09:43:00,
2013-05-25 05:53:00,47.0,40.0,-100.00,ENE,68,1.0,3.0,76,0.00,,,0.00,0.000000,,2013-05-25 09:53:00,
2013-05-25 06:02:00,46.0,41.0,-100.00,South,181,1.0,2.0,84,0.00,,,0.00,0.000000,,2013-05-25 10:02:00,
2013-05-25 06:23:00,46.0,41.0,-100.00,South,181,1.0,2.0,84,0.00,,,0.00,0.000000,,2013-05-25 10:23:00,
2013-05-25 06:33:00,46.0,41.0,-100.00,South,181,1.0,2.0,84,0.00,,,0.00,0.000000,,2013-05-25 10:33:00,
2013-05-25 06:42:00,46.0,41.0,-100.00,South,181,1.0,2.0,84,0.00,,,0.00,0.000000,,2013-05-25 10:42:00,
2013-05-25 06:52:00,46.0,41.0,-100.00,South,181,1.0,2.0,84,0.00,,,0.00,0.000000,,2013-05-25 10:52:00,
2013-05-25 07:22:00,44.0,42.0,-100.00,South,172,1.0,2.0,92,0.00,,,0.00,7.000000,,2013-05-25 11:22:00,
2013-05-25 07:32:00,44.0,42.0,-100.00,South,172,1.0,2.0,92,0.00,,,0.00,7.000000,,2013-05-25 11:32:00,
2013-05-25 07:42:00,44.0,42.0,-100.00,South,172,1.0,2.0,92,0.00,,,0.00,7.000000,,2013-05-25 11:42:00,
2013-05-25 07:52:00,44.0,42.0,-100.00,South,172,1.0,2.0,92,0.00,,,0.00,7.000000,,2013-05-25 11:52:00,
2013-05-25 08:01:00,44.0,42.0,-100.00,South,172,1.0,2.0,92,0.00,,,0.00,7.000000,,2013-05-25 12:01:00,
2013-05-25 08:02:00,45.0,43.0,-100.00,WSW,258,1.0,3.0,93,0.00,,,0.00,27.000000,,2013-05-25 12:02:00,
2013-05-25 08:22:00,45.0,43.0,-100.00,WSW,258,1.0,3.0,93,0.00,,,0.00,27.000000,,2013-05-25 12:22:00,
2013-05-25 08:32:00,45.0,43.0,-100.00,WSW,258,1.0,3.0,93,0.00,,,0.00,27.000000,,2013-05-25 12:32:00,
2013-05-25 08:42:00,45.0,43.0,-100.00,WSW,258,1.0,3.0,93,0.00,,,0.00,27.000000,,2013-05-25 12:42:00,
2013-05-25 08:52:00,45.0,43.0,-100.00,WSW,258,1.0,3.0,93,0.00,,,0.00,27.000000,,2013-05-25 12:52:00,
2013-05-25 09:02:00,59.0,46.0,-100.00,NNW,344,1.0,2.0,61,0.00,,,0.00,288.000000,,2013-05-25 13:02:00,
2013-05-25 09:22:00,59.0,46.0,-100.00,NNW,344,1.0,2.0,61,0.00,,,0.00,288.000000,,2013-05-25 13:22:00,
2013-05-25 09:32:00,59.0,46.0,-100.00,NNW,344,1.0,2.0,61,0.00,,,0.00,288.000000,,2013-05-25 13:32:00,
2013-05-25 09:42:00,59.0,46.0,-100.00,NNW,344,1.0,2.0,61,0.00,,,0.00,288.000000,,2013-05-25 13:42:00,
2013-05-25 09:52:00,59.0,46.0,-100.00,NNW,344,1.0,2.0,61,0.00,,,0.00,288.000000,,2013-05-25 13:52:00,
2013-05-25 10:22:00,67.0,49.0,-100.00,NNE,21,2.0,3.0,52,0.00,,,0.00,554.000000,,2013-05-25 14:22:00,
2013-05-25 10:32:00,67.0,49.0,-100.00,NNE,21,2.0,3.0,52,0.00,,,0.00,554.000000,,2013-05-25 14:32:00,
2013-05-25 10:42:00,67.0,49.0,-100.00,NNE,21,2.0,3.0,52,0.00,,,0.00,554.000000,,2013-05-25 14:42:00,
2013-05-25 10:52:00,67.0,49.0,-100.00,NNE,21,2.0,3.0,52,0.00,,,0.00,554.000000,,2013-05-25 14:52:00,
2013-05-25 11:01:00,67.0,49.0,-100.00,NNE,21,2.0,3.0,52,0.00,,,0.00,554.000000,,2013-05-25 15:01:00,
2013-05-25 11:02:00,72.0,45.0,-100.00,SW,222,2.0,4.0,38,0.00,,,0.00,735.000000,,2013-05-25 15:02:00,
2013-05-25 11:22:00,72.0,45.0,-100.00,SW,222,2.0,4.0,38,0.00,,,0.00,735.000000,,2013-05-25 15:22:00,
2013-05-25 11:33:00,72.0,45.0,-100.00,SW,222,2.0,4.0,38,0.00,,,0.00,735.000000,,2013-05-25 15:33:00,
2013-05-25 11:43:00,72.0,45.0,-100.00,SW,222,2.0,4.0,38,0.00,,,0.00,735.000000,,2013-05-25 15:43:00,
2013-05-25 11:53:00,72.0,45.0,-100.00,SW,222,2.0,4.0,38,0.00,,,0.00,735.000000,,2013-05-25 15:53:00,
2013-05-25 12:02:00,73.0,44.0,-100.00,West,280,2.0,5.0,35,0.00,,,0.00,811.000000,,2013-05-25 16:02:00,
2013-05-25 12:23:00,73.0,44.0,-100.00,West,280,2.0,5.0,35,0.00,,,0.00,811.000000,,2013-05-25 16:23:00,
2013-05-25 12:33:00,73.0,44.0,-100.00,West,280,2.0,5.0,35,0.00,,,0.00,811.000000,,2013-05-25 16:33:00,
2013-05-25 12:42:00,73.0,44.0,-100.00,West,280,2.0,5.0,35,0.00,,,0.00,811.000000,,2013-05-25 16:42:00,
2013-05-25 12:52:00,73.0,44.0,-100.00,West,280,2.0,5.0,35,0.00,,,0.00,811.000000,,2013-05-25 16:52:00,
2013-05-25 13:02:00,75.0,43.0,-100.00,NNW,337,3.0,6.0,32,0.00,,,0.00,996.000000,,2013-05-25 17:02:00,
2013-05-25 13:22:00,75.0,43.0,-100.00,NNW,337,3.0,6.0,32,0.00,,,0.00,996.000000,,2013-05-25 17:22:00,
2013-05-25 13:33:00,75.0,43.0,-100.00,NNW,337,3.0,6.0,32,0.00,,,0.00,996.000000,,2013-05-25 17:33:00,
2013-05-25 13:42:00,75.0,43.0,-100.00,NNW,337,3.0,6.0,32,0.00,,,0.00,996.000000,,2013-05-25 17:42:00,
2013-05-25 13:52:00,75.0,43.0,-100.00,NNW,337,3.0,6.0,32,0.00,,,0.00,996.000000,,2013-05-25 17:52:00,
2013-05-25 14:02:00,78.0,43.0,-100.00,South,188,3.0,7.0,29,0.00,,,0.00,1076.000000,,2013-05-25 18:02:00,
2013-05-25 14:22:00,78.0,43.0,-100.00,South,188,3.0,7.0,29,0.00,,,0.00,1076.000000,,2013-05-25 18:22:00,
2013-05-25 14:32:00,78.0,43.0,-100.00,South,188,3.0,7.0,29,0.00,,,0.00,1076.000000,,2013-05-25 18:32:00,
2013-05-25 14:42:00,78.0,43.0,-100.00,South,188,3.0,7.0,29,0.00,,,0.00,1076.000000,,2013-05-25 18:42:00,
2013-05-25 14:52:00,78.0,43.0,-100.00,South,188,3.0,7.0,29,0.00,,,0.00,1076.000000,,2013-05-25 18:52:00,
2013-05-25 15:02:00,78.0,41.0,-100.00,WNW,302,3.0,10.0,27,0.00,,,0.00,1056.000000,,2013-05-25 19:02:00,
2013-05-25 15:22:00,78.0,41.0,-100.00,WNW,302,3.0,10.0,27,0.00,,,0.00,1056.000000,,2013-05-25 19:22:00,
2013-05-25 15:32:00,78.0,41.0,-100.00,WNW,302,3.0,10.0,27,0.00,,,0.00,1056.000000,,2013-05-25 19:32:00,
2013-05-25 15:42:00,78.0,41.0,-100.00,WNW,302,3.0,10.0,27,0.00,,,0.00,1056.000000,,2013-05-25 19:42:00,
2013-05-25 15:52:00,78.0,41.0,-100.00,WNW,302,3.0,10.0,27,0.00,,,0.00,1056.000000,,2013-05-25 19:52:00,
2013-05-25 16:02:00,79.0,45.0,-100.00,SSW,208,3.0,9.0,30,0.00,,,0.00,960.000000,,2013-05-25 20:02:00,
2013-05-25 16:22:00,79.0,45.0,-100.00,SSW,208,3.0,9.0,30,0.00,,,0.00,960.000000,,2013-05-25 20:22:00,
2013-05-25 16:32:00,79.0,45.0,-100.00,SSW,208,3.0,9.0,30,0.00,,,0.00,960.000000,,2013-05-25 20:32:00,
2013-05-25 16:42:00,79.0,45.0,-100.00,SSW,208,3.0,9.0,30,0.00,,,0.00,960.000000,,2013-05-25 20:42:00,
2013-05-25 16:52:00,79.0,45.0,-100.00,SSW,208,3.0,9.0,30,0.00,,,0.00,960.000000,,2013-05-25 20:52:00,
2013-05-25 17:02:00,79.0,48.0,-100.00,West,275,3.0,13.0,34,0.00,,,0.00,774.000000,,2013-05-25 21:02:00,
2013-05-25 17:22:00,79.0,48.0,-100.00,West,275,3.0,13.0,34,0.00,,,0.00,774.000000,,2013-05-25 21:22:00,
2013-05-25 17:33:00,79.0,48.0,-100.00,West,275,3.0,13.0,34,0.00,,,0.00,774.000000,,2013-05-25 21:33:00,
2013-05-25 17:43:00,79.0,48.0,-100.00,West,275,3.0,13.0,34,0.00,,,0.00,774.000000,,2013-05-25 21:43:00,
2013-05-25 17:53:00,79.0,48.0,-100.00,West,275,3.0,13.0,34,0.00,,,0.00,774.000000,,2013-05-25 21:53:00,
2013-05-25 18:02:00,78.0,47.0,-100.00,WNW,303,3.0,9.0,33,0.00,,,0.00,573.000000,,2013-05-25 22:02:00,
2013-05-25 18:23:00,78.0,47.0,-100.00,WNW,303,3.0,9.0,33,0.00,,,0.00,573.000000,,2013-05-25 22:23:00,
2013-05-25 18:33:00,78.0,47.0,-100.00,WNW,303,3.0,9.0,33,0.00,,,0.00,573.000000,,2013-05-25 22:33:00,
2013-05-25 18:42:00,78.0,47.0,-100.00,WNW,303,3.0,9.0,33,0.00,,,0.00,573.000000,,2013-05-25 22:42:00,
2013-05-25 18:52:00,78.0,47.0,-100.00,WNW,303,3.0,9.0,33,0.00,,,0.00,573.000000,,2013-05-25 22:52:00,
2013-05-25 19:02:00,76.0,46.0,-100.00,NNW,333,3.0,9.0,34,0.00,,,0.00,360.000000,,2013-05-25 23:02:00,
2013-05-25 19:22:00,76.0,46.0,-100.00,NNW,333,3.0,9.0,34,0.00,,,0.00,360.000000,,2013-05-25 23:22:00,
2013-05-25 19:32:00,76.0,46.0,-100.00,NNW,333,3.0,9.0,34,0.00,,,0.00,360.000000,,2013-05-25 23:32:00,
2013-05-25 19:42:00,76.0,46.0,-100.00,NNW,333,3.0,9.0,34,0.00,,,0.00,360.000000,,2013-05-25 23:42:00,
2013-05-25 19:53:00,76.0,46.0,-100.00,NNW,333,3.0,9.0,34,0.00,,,0.00,360.000000,,2013-05-25 23:53:00,
2013-05-25 20:22:00,69.0,45.0,-100.00,NNW,339,2.0,6.0,42,0.00,,,0.00,72.000000,,2013-05-26 00:22:00,
2013-05-25 20:32:00,69.0,45.0,-100.00,NNW,339,2.0,6.0,42,0.00,,,0.00,72.000000,,2013-05-26 00:32:00,
2013-05-25 20:43:00,69.0,45.0,-100.00,NNW,339,2.0,6.0,42,0.00,,,0.00,72.000000,,2013-05-26 00:43:00,
2013-05-25 20:53:00,69.0,45.0,-100.00,NNW,339,2.0,6.0,42,0.00,,,0.00,72.000000,,2013-05-26 00:53:00,
2013-05-25 21:01:00,69.0,45.0,-100.00,NNW,339,2.0,6.0,42,0.00,,,0.00,72.000000,,2013-05-26 01:01:00,
2013-05-25 21:02:00,65.0,43.0,-100.00,ESE,120,1.0,7.0,45,0.00,,,0.00,11.000000,,2013-05-26 01:02:00,
2013-05-25 21:21:00,65.0,43.0,-100.00,ESE,120,1.0,7.0,45,0.00,,,0.00,11.000000,,2013-05-26 01:21:00,
2013-05-25 21:32:00,65.0,43.0,-100.00,ESE,120,1.0,7.0,45,0.00,,,0.00,11.000000,,2013-05-26 01:32:00,
2013-05-25 21:42:00,65.0,43.0,-100.00,ESE,120,1.0,7.0,45,0.00,,,0.00,11.000000,,2013-05-26 01:42:00,
2013-05-25 21:53:00,65.0,43.0,-100.00,ESE,120,1.0,7.0,45,0.00,,,0.00,11.000000,,2013-05-26 01:53:00,
2013-05-25 22:22:00,63.0,45.0,-100.00,North,355,1.0,4.0,52,0.00,,,0.00,0.000000,,2013-05-26 02:22:00,
2013-05-25 22:32:00,63.0,45.0,-100.00,North,355,1.0,4.0,52,0.00,,,0.00,0.000000,,2013-05-26 02:32:00,
2013-05-25 22:42:00,63.0,45.0,-100.00,North,355,1.0,4.0,52,0.00,,,0.00,0.000000,,2013-05-26 02:42:00,
2013-05-25 22:52:00,63.0,45.0,-100.00,North,355,1.0,4.0,52,0.00,,,0.00,0.000000,,2013-05-26 02:52:00,
2013-05-25 23:01:00,63.0,45.0,-100.00,North,355,1.0,4.0,52,0.00,,,0.00,0.000000,,2013-05-26 03:01:00,
2013-05-25 23:02:00,59.0,50.0,-100.00,WNW,301,1.0,2.0,72,0.00,,,0.00,0.000000,,2013-05-26 03:02:00,
2013-05-25 23:22:00,59.0,50.0,-100.00,WNW,301,1.0,2.0,72,0.00,,,0.00,0.000000,,2013-05-26 03:22:00,
2013-05-25 23:33:00,59.0,50.0,-100.00,WNW,301,1.0,2.0,72,0.00,,,0.00,0.000000,,2013-05-26 03:33:00,
2013-05-25 23:43:00,59.0,50.0,-100.00,WNW,301,1.0,2.0,72,0.00,,,0.00,0.000000,,2013-05-26 03:43:00,
2013-05-25 23:53:00,59.0,50.0,-100.00,WNW,301,1.0,2.0,72,0.00,,,0.00,0.000000,,2013-05-26 03:53:00,